sensor_id;sensor_type;location;lat;lon;timestamp;P1;durP1;ratioP1;P2;durP2;ratioP2
71125;SDS011;58785;55.566;38.058;2022-12-07T00:01:18;7.43;;;2.10;;
71125;SDS011;58785;55.566;38.058;2022-12-07T00:03:46;8.57;;;2.35;;
71125;SDS011;58785;55.566;38.058;2022-12-07T00:06:13;5.88;;;2.63;;
71125;SDS011;58785;55.566;38.058;2022-12-07T00:08:40;14.50;;;6.07;;
71125;SDS011;58785;55.566;38.058;2022-12-07T00:11:07;7.57;;;3.08;;
71125;SDS011;58785;55.566;38.058;2022-12-07T00:13:34;9.65;;;4.15;;
71125;SDS011;58785;55.566;38.058;2022-12-07T00:16:05;9.50;;;3.53;;
71125;SDS011;58785;55.566;38.058;2022-12-07T00:18:30;12.30;;;5.22;;
71125;SDS011;58785;55.566;38.058;2022-12-07T00:21:03;11.87;;;4.67;;
71125;SDS011;58785;55.566;38.058;2022-12-07T00:23:31;10.93;;;3.88;;
71125;SDS011;58785;55.566;38.058;2022-12-07T00:26:12;5.68;;;2.38;;
71125;SDS011;58785;55.566;38.058;2022-12-07T00:28:37;6.43;;;2.87;;
71125;SDS011;58785;55.566;38.058;2022-12-07T00:31:07;8.40;;;2.40;;
71125;SDS011;58785;55.566;38.058;2022-12-07T00:33:36;8.40;;;4.18;;
71125;SDS011;58785;55.566;38.058;2022-12-07T00:36:05;10.18;;;3.83;;
71125;SDS011;58785;55.566;38.058;2022-12-07T00:38:33;9.35;;;4.30;;
71125;SDS011;58785;55.566;38.058;2022-12-07T00:41:01;10.90;;;3.30;;
71125;SDS011;58785;55.566;38.058;2022-12-07T00:43:28;10.15;;;2.63;;
71125;SDS011;58785;55.566;38.058;2022-12-07T00:45:54;4.88;;;1.80;;
71125;SDS011;58785;55.566;38.058;2022-12-07T00:48:20;6.10;;;1.92;;
71125;SDS011;58785;55.566;38.058;2022-12-07T00:50:47;10.40;;;3.90;;
71125;SDS011;58785;55.566;38.058;2022-12-07T00:53:13;7.60;;;2.65;;
71125;SDS011;58785;55.566;38.058;2022-12-07T00:55:38;11.02;;;2.20;;
71125;SDS011;58785;55.566;38.058;2022-12-07T00:58:04;7.57;;;3.27;;
71125;SDS011;58785;55.566;38.058;2022-12-07T01:00:30;5.60;;;1.88;;
71125;SDS011;58785;55.566;38.058;2022-12-07T01:02:56;8.23;;;3.20;;
71125;SDS011;58785;55.566;38.058;2022-12-07T01:05:21;11.35;;;4.32;;
71125;SDS011;58785;55.566;38.058;2022-12-07T01:07:47;9.70;;;3.83;;
71125;SDS011;58785;55.566;38.058;2022-12-07T01:10:13;9.77;;;3.20;;
71125;SDS011;58785;55.566;38.058;2022-12-07T01:12:39;13.43;;;3.95;;
71125;SDS011;58785;55.566;38.058;2022-12-07T01:15:05;7.90;;;2.03;;
71125;SDS011;58785;55.566;38.058;2022-12-07T01:17:32;9.68;;;2.58;;
71125;SDS011;58785;55.566;38.058;2022-12-07T01:19:58;15.60;;;3.72;;
71125;SDS011;58785;55.566;38.058;2022-12-07T01:22:24;5.77;;;2.77;;
71125;SDS011;58785;55.566;38.058;2022-12-07T01:24:49;10.15;;;4.00;;
71125;SDS011;58785;55.566;38.058;2022-12-07T01:27:15;11.50;;;3.73;;
71125;SDS011;58785;55.566;38.058;2022-12-07T01:29:40;15.27;;;5.87;;
71125;SDS011;58785;55.566;38.058;2022-12-07T01:32:06;13.57;;;7.13;;
71125;SDS011;58785;55.566;38.058;2022-12-07T01:34:31;13.53;;;7.13;;
71125;SDS011;58785;55.566;38.058;2022-12-07T01:36:57;10.80;;;3.83;;
71125;SDS011;58785;55.566;38.058;2022-12-07T01:39:23;12.98;;;3.20;;
71125;SDS011;58785;55.566;38.058;2022-12-07T01:41:49;9.50;;;3.10;;
71125;SDS011;58785;55.566;38.058;2022-12-07T01:44:28;10.80;;;2.50;;
71125;SDS011;58785;55.566;38.058;2022-12-07T01:47:03;6.35;;;1.92;;
71125;SDS011;58785;55.566;38.058;2022-12-07T01:52:01;7.57;;;2.57;;
71125;SDS011;58785;55.566;38.058;2022-12-07T01:54:30;5.57;;;1.27;;
71125;SDS011;58785;55.566;38.058;2022-12-07T01:56:57;8.57;;;2.55;;
71125;SDS011;58785;55.566;38.058;2022-12-07T01:59:24;5.85;;;2.25;;
71125;SDS011;58785;55.566;38.058;2022-12-07T02:01:51;6.67;;;1.67;;
71125;SDS011;58785;55.566;38.058;2022-12-07T02:04:19;5.90;;;2.47;;
71125;SDS011;58785;55.566;38.058;2022-12-07T02:06:46;8.15;;;2.30;;
71125;SDS011;58785;55.566;38.058;2022-12-07T02:09:12;8.68;;;2.95;;
71125;SDS011;58785;55.566;38.058;2022-12-07T02:11:38;5.90;;;2.27;;
71125;SDS011;58785;55.566;38.058;2022-12-07T02:14:04;6.22;;;2.28;;
71125;SDS011;58785;55.566;38.058;2022-12-07T02:21:53;6.05;;;1.40;;
71125;SDS011;58785;55.566;38.058;2022-12-07T02:24:30;9.70;;;2.58;;
71125;SDS011;58785;55.566;38.058;2022-12-07T02:27:09;8.50;;;1.85;;
71125;SDS011;58785;55.566;38.058;2022-12-07T02:30:03;6.65;;;1.55;;
71125;SDS011;58785;55.566;38.058;2022-12-07T02:43:19;9.27;;;4.03;;
71125;SDS011;58785;55.566;38.058;2022-12-07T02:46:01;12.27;;;4.07;;
71125;SDS011;58785;55.566;38.058;2022-12-07T02:48:32;13.18;;;5.20;;
71125;SDS011;58785;55.566;38.058;2022-12-07T02:50:59;10.63;;;3.72;;
71125;SDS011;58785;55.566;38.058;2022-12-07T02:53:32;18.60;;;4.90;;
71125;SDS011;58785;55.566;38.058;2022-12-07T02:56:01;11.27;;;4.88;;
71125;SDS011;58785;55.566;38.058;2022-12-07T03:04:02;9.60;;;3.47;;
71125;SDS011;58785;55.566;38.058;2022-12-07T03:07:05;9.53;;;3.47;;
71125;SDS011;58785;55.566;38.058;2022-12-07T03:09:50;3.30;;;1.30;;
71125;SDS011;58785;55.566;38.058;2022-12-07T03:12:25;7.47;;;1.95;;
71125;SDS011;58785;55.566;38.058;2022-12-07T03:15:27;6.75;;;2.30;;
71125;SDS011;58785;55.566;38.058;2022-12-07T03:17:57;9.95;;;3.60;;
71125;SDS011;58785;55.566;38.058;2022-12-07T03:20:26;9.73;;;3.73;;
71125;SDS011;58785;55.566;38.058;2022-12-07T03:22:54;9.73;;;3.42;;
71125;SDS011;58785;55.566;38.058;2022-12-07T03:25:20;9.18;;;3.72;;
71125;SDS011;58785;55.566;38.058;2022-12-07T03:27:57;11.05;;;3.40;;
71125;SDS011;58785;55.566;38.058;2022-12-07T03:30:33;10.10;;;3.92;;
71125;SDS011;58785;55.566;38.058;2022-12-07T03:35:40;8.40;;;3.05;;
71125;SDS011;58785;55.566;38.058;2022-12-07T03:38:20;6.47;;;2.03;;
71125;SDS011;58785;55.566;38.058;2022-12-07T03:43:22;5.15;;;2.17;;
71125;SDS011;58785;55.566;38.058;2022-12-07T03:45:58;7.53;;;2.50;;
71125;SDS011;58785;55.566;38.058;2022-12-07T03:54:02;6.65;;;2.47;;
71125;SDS011;58785;55.566;38.058;2022-12-07T03:56:32;4.28;;;1.52;;
71125;SDS011;58785;55.566;38.058;2022-12-07T03:58:59;6.47;;;1.95;;
71125;SDS011;58785;55.566;38.058;2022-12-07T04:01:25;8.20;;;2.47;;
71125;SDS011;58785;55.566;38.058;2022-12-07T04:03:50;12.13;;;3.97;;
71125;SDS011;58785;55.566;38.058;2022-12-07T04:06:16;8.03;;;2.83;;
71125;SDS011;58785;55.566;38.058;2022-12-07T04:08:42;11.57;;;3.97;;
71125;SDS011;58785;55.566;38.058;2022-12-07T04:11:08;12.93;;;3.07;;
71125;SDS011;58785;55.566;38.058;2022-12-07T04:13:33;8.68;;;3.35;;
71125;SDS011;58785;55.566;38.058;2022-12-07T04:16:19;8.75;;;3.58;;
71125;SDS011;58785;55.566;38.058;2022-12-07T04:18:45;7.70;;;2.67;;
71125;SDS011;58785;55.566;38.058;2022-12-07T04:21:11;12.20;;;3.40;;
71125;SDS011;58785;55.566;38.058;2022-12-07T04:23:36;7.53;;;2.97;;
71125;SDS011;58785;55.566;38.058;2022-12-07T04:26:02;9.15;;;3.15;;
71125;SDS011;58785;55.566;38.058;2022-12-07T04:28:27;7.60;;;1.97;;
71125;SDS011;58785;55.566;38.058;2022-12-07T04:30:53;6.43;;;1.93;;
71125;SDS011;58785;55.566;38.058;2022-12-07T04:33:18;7.73;;;2.10;;
71125;SDS011;58785;55.566;38.058;2022-12-07T04:35:44;5.17;;;1.60;;
71125;SDS011;58785;55.566;38.058;2022-12-07T04:38:10;5.07;;;1.67;;
71125;SDS011;58785;55.566;38.058;2022-12-07T04:40:35;5.90;;;2.03;;
71125;SDS011;58785;55.566;38.058;2022-12-07T04:43:01;5.47;;;1.80;;
71125;SDS011;58785;55.566;38.058;2022-12-07T04:51:51;7.85;;;2.30;;
71125;SDS011;58785;55.566;38.058;2022-12-07T04:54:17;5.47;;;2.27;;
71125;SDS011;58785;55.566;38.058;2022-12-07T04:56:43;5.80;;;2.65;;
71125;SDS011;58785;55.566;38.058;2022-12-07T04:59:09;7.95;;;3.33;;
71125;SDS011;58785;55.566;38.058;2022-12-07T05:01:36;7.57;;;3.10;;
71125;SDS011;58785;55.566;38.058;2022-12-07T05:04:02;10.00;;;4.43;;
71125;SDS011;58785;55.566;38.058;2022-12-07T05:06:28;4.10;;;2.35;;
71125;SDS011;58785;55.566;38.058;2022-12-07T05:08:53;12.77;;;4.30;;
71125;SDS011;58785;55.566;38.058;2022-12-07T05:11:19;9.13;;;4.25;;
71125;SDS011;58785;55.566;38.058;2022-12-07T05:14:04;8.50;;;4.33;;
71125;SDS011;58785;55.566;38.058;2022-12-07T05:16:34;15.50;;;5.10;;
71125;SDS011;58785;55.566;38.058;2022-12-07T05:19:00;9.15;;;4.13;;
71125;SDS011;58785;55.566;38.058;2022-12-07T05:21:25;7.57;;;3.63;;
71125;SDS011;58785;55.566;38.058;2022-12-07T05:23:51;8.07;;;3.33;;
71125;SDS011;58785;55.566;38.058;2022-12-07T05:26:17;7.85;;;2.25;;
71125;SDS011;58785;55.566;38.058;2022-12-07T05:28:43;7.05;;;2.80;;
71125;SDS011;58785;55.566;38.058;2022-12-07T05:31:08;6.13;;;2.67;;
71125;SDS011;58785;55.566;38.058;2022-12-07T05:33:34;9.07;;;5.00;;
71125;SDS011;58785;55.566;38.058;2022-12-07T05:36:00;11.52;;;5.50;;
71125;SDS011;58785;55.566;38.058;2022-12-07T05:38:31;10.90;;;5.20;;
71125;SDS011;58785;55.566;38.058;2022-12-07T05:41:01;8.23;;;3.90;;
71125;SDS011;58785;55.566;38.058;2022-12-07T05:43:30;14.52;;;5.32;;
71125;SDS011;58785;55.566;38.058;2022-12-07T05:45:56;7.10;;;4.85;;
71125;SDS011;58785;55.566;38.058;2022-12-07T05:48:22;4.15;;;1.67;;
71125;SDS011;58785;55.566;38.058;2022-12-07T05:50:48;6.60;;;2.43;;
71125;SDS011;58785;55.566;38.058;2022-12-07T05:53:15;9.80;;;2.30;;
71125;SDS011;58785;55.566;38.058;2022-12-07T05:55:41;10.00;;;3.28;;
71125;SDS011;58785;55.566;38.058;2022-12-07T05:58:07;4.97;;;1.70;;
71125;SDS011;58785;55.566;38.058;2022-12-07T06:00:53;7.03;;;3.38;;
71125;SDS011;58785;55.566;38.058;2022-12-07T06:03:19;5.03;;;2.25;;
71125;SDS011;58785;55.566;38.058;2022-12-07T06:05:45;5.40;;;1.87;;
71125;SDS011;58785;55.566;38.058;2022-12-07T06:08:11;10.80;;;2.97;;
71125;SDS011;58785;55.566;38.058;2022-12-07T06:10:36;6.80;;;1.70;;
71125;SDS011;58785;55.566;38.058;2022-12-07T06:13:02;3.60;;;1.02;;
71125;SDS011;58785;55.566;38.058;2022-12-07T06:15:27;8.77;;;2.83;;
71125;SDS011;58785;55.566;38.058;2022-12-07T06:17:53;6.17;;;2.27;;
71125;SDS011;58785;55.566;38.058;2022-12-07T06:20:18;7.60;;;3.17;;
71125;SDS011;58785;55.566;38.058;2022-12-07T06:22:44;6.10;;;3.00;;
71125;SDS011;58785;55.566;38.058;2022-12-07T06:25:10;7.18;;;3.03;;
71125;SDS011;58785;55.566;38.058;2022-12-07T06:27:35;6.00;;;2.23;;
71125;SDS011;58785;55.566;38.058;2022-12-07T06:30:01;2.23;;;0.97;;
71125;SDS011;58785;55.566;38.058;2022-12-07T06:32:31;5.20;;;1.88;;
71125;SDS011;58785;55.566;38.058;2022-12-07T06:34:59;3.08;;;1.30;;
71125;SDS011;58785;55.566;38.058;2022-12-07T06:37:25;5.40;;;1.38;;
71125;SDS011;58785;55.566;38.058;2022-12-07T06:39:50;6.30;;;2.50;;
71125;SDS011;58785;55.566;38.058;2022-12-07T06:42:16;10.68;;;3.13;;
71125;SDS011;58785;55.566;38.058;2022-12-07T06:44:41;5.93;;;1.77;;
71125;SDS011;58785;55.566;38.058;2022-12-07T06:47:07;5.30;;;1.70;;
71125;SDS011;58785;55.566;38.058;2022-12-07T06:49:34;3.47;;;1.33;;
71125;SDS011;58785;55.566;38.058;2022-12-07T06:52:00;4.38;;;1.63;;
71125;SDS011;58785;55.566;38.058;2022-12-07T06:54:25;4.10;;;1.87;;
71125;SDS011;58785;55.566;38.058;2022-12-07T06:56:51;5.78;;;1.20;;
71125;SDS011;58785;55.566;38.058;2022-12-07T06:59:16;5.27;;;2.40;;
71125;SDS011;58785;55.566;38.058;2022-12-07T07:01:51;4.50;;;1.47;;
71125;SDS011;58785;55.566;38.058;2022-12-07T07:04:16;5.88;;;1.33;;
71125;SDS011;58785;55.566;38.058;2022-12-07T07:06:43;4.13;;;1.40;;
71125;SDS011;58785;55.566;38.058;2022-12-07T07:09:09;4.07;;;1.30;;
71125;SDS011;58785;55.566;38.058;2022-12-07T07:11:34;4.67;;;2.00;;
71125;SDS011;58785;55.566;38.058;2022-12-07T07:14:00;4.17;;;1.30;;
71125;SDS011;58785;55.566;38.058;2022-12-07T07:16:27;5.97;;;0.80;;
71125;SDS011;58785;55.566;38.058;2022-12-07T07:19:06;5.73;;;1.40;;
71125;SDS011;58785;55.566;38.058;2022-12-07T07:21:31;5.65;;;1.95;;
71125;SDS011;58785;55.566;38.058;2022-12-07T07:23:57;9.27;;;2.60;;
71125;SDS011;58785;55.566;38.058;2022-12-07T07:26:23;8.33;;;2.13;;
71125;SDS011;58785;55.566;38.058;2022-12-07T07:28:48;6.43;;;2.30;;
71125;SDS011;58785;55.566;38.058;2022-12-07T07:31:29;9.37;;;2.60;;
71125;SDS011;58785;55.566;38.058;2022-12-07T07:33:55;5.50;;;2.47;;
71125;SDS011;58785;55.566;38.058;2022-12-07T07:36:20;7.37;;;2.10;;
71125;SDS011;58785;55.566;38.058;2022-12-07T07:38:46;7.75;;;3.08;;
71125;SDS011;58785;55.566;38.058;2022-12-07T07:41:11;10.57;;;1.93;;
71125;SDS011;58785;55.566;38.058;2022-12-07T07:43:37;5.73;;;2.17;;
71125;SDS011;58785;55.566;38.058;2022-12-07T07:46:02;6.80;;;2.28;;
71125;SDS011;58785;55.566;38.058;2022-12-07T07:48:28;3.43;;;1.07;;
71125;SDS011;58785;55.566;38.058;2022-12-07T07:50:53;7.00;;;2.20;;
71125;SDS011;58785;55.566;38.058;2022-12-07T07:53:19;5.63;;;2.08;;
71125;SDS011;58785;55.566;38.058;2022-12-07T07:55:53;4.93;;;1.80;;
71125;SDS011;58785;55.566;38.058;2022-12-07T07:58:19;6.05;;;2.20;;
71125;SDS011;58785;55.566;38.058;2022-12-07T08:00:45;5.32;;;2.30;;
71125;SDS011;58785;55.566;38.058;2022-12-07T08:03:11;8.83;;;2.47;;
71125;SDS011;58785;55.566;38.058;2022-12-07T08:05:37;5.00;;;1.38;;
71125;SDS011;58785;55.566;38.058;2022-12-07T08:08:03;4.15;;;1.70;;
71125;SDS011;58785;55.566;38.058;2022-12-07T08:10:29;6.53;;;2.13;;
71125;SDS011;58785;55.566;38.058;2022-12-07T08:12:57;6.20;;;1.88;;
71125;SDS011;58785;55.566;38.058;2022-12-07T08:15:45;5.45;;;1.77;;
71125;SDS011;58785;55.566;38.058;2022-12-07T08:18:12;7.95;;;1.85;;
71125;SDS011;58785;55.566;38.058;2022-12-07T08:20:39;4.70;;;1.80;;
71125;SDS011;58785;55.566;38.058;2022-12-07T08:23:06;8.30;;;2.10;;
71125;SDS011;58785;55.566;38.058;2022-12-07T08:25:32;5.65;;;2.40;;
71125;SDS011;58785;55.566;38.058;2022-12-07T08:28:01;9.32;;;1.23;;
71125;SDS011;58785;55.566;38.058;2022-12-07T08:30:27;5.70;;;1.75;;
71125;SDS011;58785;55.566;38.058;2022-12-07T08:32:54;5.57;;;1.30;;
71125;SDS011;58785;55.566;38.058;2022-12-07T08:35:21;5.18;;;1.45;;
71125;SDS011;58785;55.566;38.058;2022-12-07T08:37:47;5.88;;;1.58;;
71125;SDS011;58785;55.566;38.058;2022-12-07T08:40:29;4.85;;;1.20;;
71125;SDS011;58785;55.566;38.058;2022-12-07T08:42:55;4.60;;;1.63;;
71125;SDS011;58785;55.566;38.058;2022-12-07T08:45:21;4.27;;;1.50;;
71125;SDS011;58785;55.566;38.058;2022-12-07T08:47:49;11.45;;;2.42;;
71125;SDS011;58785;55.566;38.058;2022-12-07T08:50:21;5.72;;;1.80;;
71125;SDS011;58785;55.566;38.058;2022-12-07T08:52:51;9.77;;;2.10;;
71125;SDS011;58785;55.566;38.058;2022-12-07T08:55:19;6.95;;;1.50;;
71125;SDS011;58785;55.566;38.058;2022-12-07T08:57:44;4.55;;;1.38;;
71125;SDS011;58785;55.566;38.058;2022-12-07T09:00:11;4.53;;;1.43;;
71125;SDS011;58785;55.566;38.058;2022-12-07T09:02:37;7.40;;;1.40;;
71125;SDS011;58785;55.566;38.058;2022-12-07T09:05:03;7.88;;;2.53;;
71125;SDS011;58785;55.566;38.058;2022-12-07T09:07:29;4.38;;;1.05;;
71125;SDS011;58785;55.566;38.058;2022-12-07T09:09:57;5.03;;;1.67;;
71125;SDS011;58785;55.566;38.058;2022-12-07T09:12:23;5.30;;;1.33;;
71125;SDS011;58785;55.566;38.058;2022-12-07T09:15:01;6.47;;;1.50;;
71125;SDS011;58785;55.566;38.058;2022-12-07T09:17:31;5.28;;;1.50;;
71125;SDS011;58785;55.566;38.058;2022-12-07T09:19:58;6.75;;;1.45;;
71125;SDS011;58785;55.566;38.058;2022-12-07T09:22:23;3.70;;;1.00;;
71125;SDS011;58785;55.566;38.058;2022-12-07T09:24:49;6.57;;;1.77;;
71125;SDS011;58785;55.566;38.058;2022-12-07T09:27:20;4.50;;;1.53;;
71125;SDS011;58785;55.566;38.058;2022-12-07T09:29:47;12.50;;;2.30;;
71125;SDS011;58785;55.566;38.058;2022-12-07T09:32:13;4.97;;;1.10;;
71125;SDS011;58785;55.566;38.058;2022-12-07T09:34:40;3.97;;;1.20;;
71125;SDS011;58785;55.566;38.058;2022-12-07T09:37:05;5.47;;;1.65;;
71125;SDS011;58785;55.566;38.058;2022-12-07T09:39:31;5.80;;;0.98;;
71125;SDS011;58785;55.566;38.058;2022-12-07T09:41:57;6.53;;;2.50;;
71125;SDS011;58785;55.566;38.058;2022-12-07T09:44:24;4.55;;;1.00;;
71125;SDS011;58785;55.566;38.058;2022-12-07T09:50:35;5.40;;;1.00;;
71125;SDS011;58785;55.566;38.058;2022-12-07T09:53:07;6.20;;;1.40;;
71125;SDS011;58785;55.566;38.058;2022-12-07T09:55:38;9.93;;;1.87;;
71125;SDS011;58785;55.566;38.058;2022-12-07T09:58:08;4.85;;;1.33;;
71125;SDS011;58785;55.566;38.058;2022-12-07T10:00:39;2.58;;;0.75;;
71125;SDS011;58785;55.566;38.058;2022-12-07T10:03:05;8.93;;;1.70;;
71125;SDS011;58785;55.566;38.058;2022-12-07T10:05:37;5.88;;;1.23;;
71125;SDS011;58785;55.566;38.058;2022-12-07T10:08:08;5.83;;;1.63;;
71125;SDS011;58785;55.566;38.058;2022-12-07T10:10:38;4.55;;;1.58;;
71125;SDS011;58785;55.566;38.058;2022-12-07T10:13:06;4.13;;;1.20;;
71125;SDS011;58785;55.566;38.058;2022-12-07T10:20:59;6.73;;;1.20;;
71125;SDS011;58785;55.566;38.058;2022-12-07T10:24:02;4.90;;;1.65;;
71125;SDS011;58785;55.566;38.058;2022-12-07T10:26:37;5.50;;;1.60;;
71125;SDS011;58785;55.566;38.058;2022-12-07T10:31:45;4.72;;;1.75;;
71125;SDS011;58785;55.566;38.058;2022-12-07T10:42:31;3.08;;;0.90;;
71125;SDS011;58785;55.566;38.058;2022-12-07T10:45:13;4.20;;;0.85;;
71125;SDS011;58785;55.566;38.058;2022-12-07T11:02:08;7.03;;;1.42;;
71125;SDS011;58785;55.566;38.058;2022-12-07T11:13:21;7.63;;;1.88;;
71125;SDS011;58785;55.566;38.058;2022-12-07T11:26:41;9.93;;;2.10;;
71125;SDS011;58785;55.566;38.058;2022-12-07T11:29:28;6.63;;;1.58;;
71125;SDS011;58785;55.566;38.058;2022-12-07T11:37:15;4.85;;;1.48;;
71125;SDS011;58785;55.566;38.058;2022-12-07T11:39:49;9.45;;;2.45;;
71125;SDS011;58785;55.566;38.058;2022-12-07T11:42:24;5.20;;;1.50;;
71125;SDS011;58785;55.566;38.058;2022-12-07T11:45:26;8.57;;;2.43;;
71125;SDS011;58785;55.566;38.058;2022-12-07T11:47:53;14.35;;;3.03;;
71125;SDS011;58785;55.566;38.058;2022-12-07T11:50:41;8.50;;;3.45;;
71125;SDS011;58785;55.566;38.058;2022-12-07T11:53:14;7.00;;;1.70;;
71125;SDS011;58785;55.566;38.058;2022-12-07T11:58:35;6.67;;;1.63;;
71125;SDS011;58785;55.566;38.058;2022-12-07T12:03:38;6.80;;;1.90;;
71125;SDS011;58785;55.566;38.058;2022-12-07T12:06:07;11.30;;;3.17;;
71125;SDS011;58785;55.566;38.058;2022-12-07T12:08:34;11.03;;;5.00;;
71125;SDS011;58785;55.566;38.058;2022-12-07T12:19:24;6.65;;;2.20;;
71125;SDS011;58785;55.566;38.058;2022-12-07T12:21:55;11.55;;;2.78;;
71125;SDS011;58785;55.566;38.058;2022-12-07T12:24:34;11.27;;;2.83;;
71125;SDS011;58785;55.566;38.058;2022-12-07T12:27:04;8.52;;;2.15;;
71125;SDS011;58785;55.566;38.058;2022-12-07T12:29:35;14.20;;;3.70;;
71125;SDS011;58785;55.566;38.058;2022-12-07T12:38:24;7.40;;;2.65;;
71125;SDS011;58785;55.566;38.058;2022-12-07T12:40:58;9.68;;;3.65;;
71125;SDS011;58785;55.566;38.058;2022-12-07T12:51:46;9.90;;;5.00;;
71125;SDS011;58785;55.566;38.058;2022-12-07T12:54:15;16.60;;;5.22;;
71125;SDS011;58785;55.566;38.058;2022-12-07T12:59:32;10.15;;;3.50;;
71125;SDS011;58785;55.566;38.058;2022-12-07T13:02:16;6.57;;;2.58;;
71125;SDS011;58785;55.566;38.058;2022-12-07T13:23:36;35.27;;;12.93;;
71125;SDS011;58785;55.566;38.058;2022-12-07T13:28:49;21.85;;;7.10;;
71125;SDS011;58785;55.566;38.058;2022-12-07T13:31:33;9.25;;;3.63;;
71125;SDS011;58785;55.566;38.058;2022-12-07T13:34:02;5.28;;;2.40;;
71125;SDS011;58785;55.566;38.058;2022-12-07T13:36:30;13.50;;;5.57;;
71125;SDS011;58785;55.566;38.058;2022-12-07T13:39:10;11.40;;;5.20;;
71125;SDS011;58785;55.566;38.058;2022-12-07T13:41:41;9.85;;;2.83;;
71125;SDS011;58785;55.566;38.058;2022-12-07T13:44:11;7.85;;;3.17;;
71125;SDS011;58785;55.566;38.058;2022-12-07T13:49:27;5.17;;;1.90;;
71125;SDS011;58785;55.566;38.058;2022-12-07T13:52:06;7.93;;;2.53;;
71125;SDS011;58785;55.566;38.058;2022-12-07T13:57:27;6.18;;;1.77;;
71125;SDS011;58785;55.566;38.058;2022-12-07T13:59:59;5.45;;;1.45;;
71125;SDS011;58785;55.566;38.058;2022-12-07T14:02:27;6.80;;;2.30;;
71125;SDS011;58785;55.566;38.058;2022-12-07T14:05:13;8.07;;;1.90;;
71125;SDS011;58785;55.566;38.058;2022-12-07T14:07:54;5.50;;;2.05;;
71125;SDS011;58785;55.566;38.058;2022-12-07T14:10:34;5.43;;;1.67;;
71125;SDS011;58785;55.566;38.058;2022-12-07T14:13:01;4.85;;;1.35;;
71125;SDS011;58785;55.566;38.058;2022-12-07T14:15:49;6.43;;;1.57;;
71125;SDS011;58785;55.566;38.058;2022-12-07T14:23:29;9.55;;;2.15;;
71125;SDS011;58785;55.566;38.058;2022-12-07T14:26:03;4.53;;;1.60;;
71125;SDS011;58785;55.566;38.058;2022-12-07T14:28:39;5.43;;;2.15;;
71125;SDS011;58785;55.566;38.058;2022-12-07T14:31:13;5.43;;;1.48;;
71125;SDS011;58785;55.566;38.058;2022-12-07T14:33:41;8.07;;;2.78;;
71125;SDS011;58785;55.566;38.058;2022-12-07T14:36:10;8.03;;;2.10;;
71125;SDS011;58785;55.566;38.058;2022-12-07T14:38:37;6.43;;;2.25;;
71125;SDS011;58785;55.566;38.058;2022-12-07T14:41:04;4.55;;;1.85;;
71125;SDS011;58785;55.566;38.058;2022-12-07T14:43:50;3.92;;;1.30;;
71125;SDS011;58785;55.566;38.058;2022-12-07T14:46:16;6.67;;;1.80;;
71125;SDS011;58785;55.566;38.058;2022-12-07T14:48:41;5.50;;;2.27;;
71125;SDS011;58785;55.566;38.058;2022-12-07T14:51:07;4.13;;;1.43;;
71125;SDS011;58785;55.566;38.058;2022-12-07T14:53:38;8.95;;;1.55;;
71125;SDS011;58785;55.566;38.058;2022-12-07T14:56:07;5.38;;;2.20;;
71125;SDS011;58785;55.566;38.058;2022-12-07T14:58:33;5.13;;;1.92;;
71125;SDS011;58785;55.566;38.058;2022-12-07T15:00:59;6.53;;;1.40;;
71125;SDS011;58785;55.566;38.058;2022-12-07T15:03:25;7.15;;;2.05;;
71125;SDS011;58785;55.566;38.058;2022-12-07T15:05:51;6.20;;;2.50;;
71125;SDS011;58785;55.566;38.058;2022-12-07T15:08:16;6.38;;;1.65;;
71125;SDS011;58785;55.566;38.058;2022-12-07T15:10:44;5.38;;;1.17;;
71125;SDS011;58785;55.566;38.058;2022-12-07T15:13:09;6.20;;;1.93;;
71125;SDS011;58785;55.566;38.058;2022-12-07T15:15:54;3.95;;;1.02;;
71125;SDS011;58785;55.566;38.058;2022-12-07T15:18:21;3.42;;;1.05;;
71125;SDS011;58785;55.566;38.058;2022-12-07T15:20:49;7.53;;;2.27;;
71125;SDS011;58785;55.566;38.058;2022-12-07T15:23:16;10.35;;;2.53;;
71125;SDS011;58785;55.566;38.058;2022-12-07T15:25:46;10.23;;;2.72;;
71125;SDS011;58785;55.566;38.058;2022-12-07T15:28:13;4.35;;;1.10;;
71125;SDS011;58785;55.566;38.058;2022-12-07T15:30:40;4.80;;;1.17;;
71125;SDS011;58785;55.566;38.058;2022-12-07T15:33:07;4.28;;;2.00;;
71125;SDS011;58785;55.566;38.058;2022-12-07T15:35:33;4.25;;;1.38;;
71125;SDS011;58785;55.566;38.058;2022-12-07T15:37:58;8.23;;;1.57;;
71125;SDS011;58785;55.566;38.058;2022-12-07T15:40:24;5.10;;;1.83;;
71125;SDS011;58785;55.566;38.058;2022-12-07T15:42:50;6.50;;;1.83;;
71125;SDS011;58785;55.566;38.058;2022-12-07T15:45:15;5.50;;;1.20;;
71125;SDS011;58785;55.566;38.058;2022-12-07T15:47:42;4.75;;;1.58;;
71125;SDS011;58785;55.566;38.058;2022-12-07T15:50:14;5.50;;;1.50;;
71125;SDS011;58785;55.566;38.058;2022-12-07T15:52:41;5.97;;;1.30;;
71125;SDS011;58785;55.566;38.058;2022-12-07T15:55:07;5.22;;;1.42;;
71125;SDS011;58785;55.566;38.058;2022-12-07T15:57:34;4.30;;;1.50;;
71125;SDS011;58785;55.566;38.058;2022-12-07T16:00:02;4.97;;;1.58;;
71125;SDS011;58785;55.566;38.058;2022-12-07T16:02:29;6.68;;;1.08;;
71125;SDS011;58785;55.566;38.058;2022-12-07T16:04:55;3.47;;;1.00;;
71125;SDS011;58785;55.566;38.058;2022-12-07T16:07:21;5.37;;;1.10;;
71125;SDS011;58785;55.566;38.058;2022-12-07T16:09:46;2.55;;;0.70;;
71125;SDS011;58785;55.566;38.058;2022-12-07T16:12:12;10.27;;;2.13;;
71125;SDS011;58785;55.566;38.058;2022-12-07T16:14:39;4.40;;;1.27;;
71125;SDS011;58785;55.566;38.058;2022-12-07T16:17:05;7.30;;;2.08;;
71125;SDS011;58785;55.566;38.058;2022-12-07T16:19:35;5.10;;;1.83;;
71125;SDS011;58785;55.566;38.058;2022-12-07T16:22:01;4.03;;;1.80;;
71125;SDS011;58785;55.566;38.058;2022-12-07T16:24:28;4.67;;;1.93;;
71125;SDS011;58785;55.566;38.058;2022-12-07T16:26:53;6.15;;;1.98;;
71125;SDS011;58785;55.566;38.058;2022-12-07T16:29:19;10.47;;;1.20;;
71125;SDS011;58785;55.566;38.058;2022-12-07T16:31:46;4.25;;;1.25;;
71125;SDS011;58785;55.566;38.058;2022-12-07T16:34:13;6.78;;;1.92;;
71125;SDS011;58785;55.566;38.058;2022-12-07T16:36:39;8.30;;;1.90;;
71125;SDS011;58785;55.566;38.058;2022-12-07T16:39:04;5.10;;;1.45;;
71125;SDS011;58785;55.566;38.058;2022-12-07T16:41:31;11.18;;;1.73;;
71125;SDS011;58785;55.566;38.058;2022-12-07T16:43:57;4.70;;;0.80;;
71125;SDS011;58785;55.566;38.058;2022-12-07T16:46:27;6.13;;;1.35;;
71125;SDS011;58785;55.566;38.058;2022-12-07T16:48:52;4.80;;;0.97;;
71125;SDS011;58785;55.566;38.058;2022-12-07T16:51:18;3.95;;;1.58;;
71125;SDS011;58785;55.566;38.058;2022-12-07T16:53:44;4.38;;;1.48;;
71125;SDS011;58785;55.566;38.058;2022-12-07T16:56:11;3.13;;;1.20;;
71125;SDS011;58785;55.566;38.058;2022-12-07T16:58:38;5.63;;;1.92;;
71125;SDS011;58785;55.566;38.058;2022-12-07T17:01:17;4.80;;;1.63;;
71125;SDS011;58785;55.566;38.058;2022-12-07T17:03:44;3.35;;;0.88;;
71125;SDS011;58785;55.566;38.058;2022-12-07T17:06:17;3.77;;;1.20;;
71125;SDS011;58785;55.566;38.058;2022-12-07T17:08:48;2.25;;;0.77;;
71125;SDS011;58785;55.566;38.058;2022-12-07T17:11:16;5.10;;;1.38;;
71125;SDS011;58785;55.566;38.058;2022-12-07T17:13:46;3.92;;;1.30;;
71125;SDS011;58785;55.566;38.058;2022-12-07T17:16:31;5.88;;;1.58;;
71125;SDS011;58785;55.566;38.058;2022-12-07T17:18:57;3.57;;;0.70;;
71125;SDS011;58785;55.566;38.058;2022-12-07T17:21:23;5.72;;;0.90;;
71125;SDS011;58785;55.566;38.058;2022-12-07T17:23:50;4.30;;;1.27;;
71125;SDS011;58785;55.566;38.058;2022-12-07T17:26:20;2.67;;;1.33;;
71125;SDS011;58785;55.566;38.058;2022-12-07T17:28:47;3.17;;;1.42;;